sensor_id;sensor_type;location;lat;lon;timestamp;temperature;humidity
10314;DHT22;5202;49.138;10.090;2024-01-30T00:01:09;0.80;99.90
10314;DHT22;5202;49.138;10.090;2024-01-30T00:03:38;0.90;99.90
10314;DHT22;5202;49.138;10.090;2024-01-30T00:06:07;0.90;99.90
10314;DHT22;5202;49.138;10.090;2024-01-30T00:08:36;1.00;99.90
10314;DHT22;5202;49.138;10.090;2024-01-30T00:11:07;1.00;99.90
10314;DHT22;5202;49.138;10.090;2024-01-30T00:13:36;1.00;99.90
10314;DHT22;5202;49.138;10.090;2024-01-30T00:16:04;1.00;99.90
10314;DHT22;5202;49.138;10.090;2024-01-30T00:18:33;1.00;99.90
10314;DHT22;5202;49.138;10.090;2024-01-30T00:21:02;0.90;99.90
10314;DHT22;5202;49.138;10.090;2024-01-30T00:23:31;0.90;99.90
10314;DHT22;5202;49.138;10.090;2024-01-30T00:25:59;1.00;99.90
10314;DHT22;5202;49.138;10.090;2024-01-30T00:28:29;1.00;99.90
10314;DHT22;5202;49.138;10.090;2024-01-30T00:30:58;1.00;99.90
10314;DHT22;5202;49.138;10.090;2024-01-30T00:33:26;1.00;99.90
10314;DHT22;5202;49.138;10.090;2024-01-30T00:35:55;1.10;99.90
10314;DHT22;5202;49.138;10.090;2024-01-30T00:38:23;1.00;99.90
10314;DHT22;5202;49.138;10.090;2024-01-30T00:40:52;1.00;99.90
10314;DHT22;5202;49.138;10.090;2024-01-30T00:43:20;1.00;99.90
10314;DHT22;5202;49.138;10.090;2024-01-30T00:45:50;0.90;99.90
10314;DHT22;5202;49.138;10.090;2024-01-30T00:48:20;0.70;99.90
10314;DHT22;5202;49.138;10.090;2024-01-30T00:50:48;0.60;99.90
10314;DHT22;5202;49.138;10.090;2024-01-30T00:53:17;0.60;99.90
10314;DHT22;5202;49.138;10.090;2024-01-30T00:55:45;0.50;99.90
10314;DHT22;5202;49.138;10.090;2024-01-30T00:58:14;0.50;99.90
10314;DHT22;5202;49.138;10.090;2024-01-30T01:00:43;0.50;99.90
10314;DHT22;5202;49.138;10.090;2024-01-30T01:03:13;0.40;99.90
10314;DHT22;5202;49.138;10.090;2024-01-30T01:05:41;0.40;99.90
10314;DHT22;5202;49.138;10.090;2024-01-30T01:08:10;0.30;99.90
10314;DHT22;5202;49.138;10.090;2024-01-30T01:10:39;0.30;99.90
10314;DHT22;5202;49.138;10.090;2024-01-30T01:13:07;0.40;99.90
10314;DHT22;5202;49.138;10.090;2024-01-30T01:15:36;0.40;99.90
10314;DHT22;5202;49.138;10.090;2024-01-30T01:18:05;0.50;99.90
10314;DHT22;5202;49.138;10.090;2024-01-30T01:20:35;0.50;99.90
10314;DHT22;5202;49.138;10.090;2024-01-30T01:23:04;0.50;99.90
10314;DHT22;5202;49.138;10.090;2024-01-30T01:25:32;0.50;99.90
10314;DHT22;5202;49.138;10.090;2024-01-30T01:28:00;0.50;99.90
10314;DHT22;5202;49.138;10.090;2024-01-30T01:30:29;0.50;99.90
10314;DHT22;5202;49.138;10.090;2024-01-30T01:32:58;0.40;99.90
10314;DHT22;5202;49.138;10.090;2024-01-30T01:35:29;0.40;99.90
10314;DHT22;5202;49.138;10.090;2024-01-30T01:37:59;0.40;99.90
10314;DHT22;5202;49.138;10.090;2024-01-30T01:40:28;0.40;99.90
10314;DHT22;5202;49.138;10.090;2024-01-30T01:42:56;0.30;99.90
10314;DHT22;5202;49.138;10.090;2024-01-30T01:45:25;0.20;99.90
10314;DHT22;5202;49.138;10.090;2024-01-30T01:47:54;0.10;99.90
10314;DHT22;5202;49.138;10.090;2024-01-30T01:50:23;0.10;99.90
10314;DHT22;5202;49.138;10.090;2024-01-30T01:52:53;0.10;99.90
10314;DHT22;5202;49.138;10.090;2024-01-30T01:55:23;0.10;99.90
10314;DHT22;5202;49.138;10.090;2024-01-30T01:57:53;0.00;99.90
10314;DHT22;5202;49.138;10.090;2024-01-30T02:00:22;0.00;99.90
10314;DHT22;5202;49.138;10.090;2024-01-30T02:02:52;0.10;99.90
10314;DHT22;5202;49.138;10.090;2024-01-30T02:05:21;0.10;99.90
10314;DHT22;5202;49.138;10.090;2024-01-30T02:07:50;0.10;99.90
10314;DHT22;5202;49.138;10.090;2024-01-30T02:10:19;0.10;99.90
10314;DHT22;5202;49.138;10.090;2024-01-30T02:12:50;0.10;99.90
10314;DHT22;5202;49.138;10.090;2024-01-30T02:15:18;0.10;99.90
10314;DHT22;5202;49.138;10.090;2024-01-30T02:17:47;0.20;99.90
10314;DHT22;5202;49.138;10.090;2024-01-30T02:20:15;0.20;99.90
10314;DHT22;5202;49.138;10.090;2024-01-30T02:22:45;0.20;99.90
10314;DHT22;5202;49.138;10.090;2024-01-30T02:25:14;0.20;99.90
10314;DHT22;5202;49.138;10.090;2024-01-30T02:27:43;0.30;99.90
10314;DHT22;5202;49.138;10.090;2024-01-30T02:30:12;0.30;99.90
10314;DHT22;5202;49.138;10.090;2024-01-30T02:32:41;0.30;99.90
10314;DHT22;5202;49.138;10.090;2024-01-30T02:35:09;0.30;99.90
10314;DHT22;5202;49.138;10.090;2024-01-30T02:37:38;0.30;99.90
10314;DHT22;5202;49.138;10.090;2024-01-30T02:40:08;0.30;99.90
10314;DHT22;5202;49.138;10.090;2024-01-30T02:42:37;0.30;99.90
10314;DHT22;5202;49.138;10.090;2024-01-30T02:45:06;0.20;99.90
10314;DHT22;5202;49.138;10.090;2024-01-30T02:47:35;0.20;99.90
10314;DHT22;5202;49.138;10.090;2024-01-30T02:50:04;0.20;99.90
10314;DHT22;5202;49.138;10.090;2024-01-30T02:52:33;0.20;99.90
10314;DHT22;5202;49.138;10.090;2024-01-30T02:55:02;0.10;99.90
10314;DHT22;5202;49.138;10.090;2024-01-30T02:57:32;0.00;99.90
10314;DHT22;5202;49.138;10.090;2024-01-30T03:00:01;-0.10;99.90
10314;DHT22;5202;49.138;10.090;2024-01-30T03:02:31;-0.10;99.90
10314;DHT22;5202;49.138;10.090;2024-01-30T03:04:59;0.00;99.90
10314;DHT22;5202;49.138;10.090;2024-01-30T03:07:28;0.00;99.90
10314;DHT22;5202;49.138;10.090;2024-01-30T03:09:57;-0.10;99.90
10314;DHT22;5202;49.138;10.090;2024-01-30T03:12:26;-0.10;99.90
10314;DHT22;5202;49.138;10.090;2024-01-30T03:14:55;-0.10;99.90
10314;DHT22;5202;49.138;10.090;2024-01-30T03:17:24;-0.10;99.90
10314;DHT22;5202;49.138;10.090;2024-01-30T03:19:52;-0.10;99.90
10314;DHT22;5202;49.138;10.090;2024-01-30T03:22:21;-0.10;99.90
10314;DHT22;5202;49.138;10.090;2024-01-30T03:24:49;-0.10;99.90
10314;DHT22;5202;49.138;10.090;2024-01-30T03:27:19;0.00;99.90
10314;DHT22;5202;49.138;10.090;2024-01-30T03:29:47;0.00;99.90
10314;DHT22;5202;49.138;10.090;2024-01-30T03:32:17;0.00;99.90
10314;DHT22;5202;49.138;10.090;2024-01-30T03:34:45;0.00;99.90
10314;DHT22;5202;49.138;10.090;2024-01-30T03:37:14;-0.10;99.90
10314;DHT22;5202;49.138;10.090;2024-01-30T03:39:42;0.00;99.90
10314;DHT22;5202;49.138;10.090;2024-01-30T03:42:11;-0.10;99.90
10314;DHT22;5202;49.138;10.090;2024-01-30T03:44:46;-0.10;99.90
10314;DHT22;5202;49.138;10.090;2024-01-30T03:47:14;-0.10;99.90
10314;DHT22;5202;49.138;10.090;2024-01-30T03:49:44;-0.20;99.90
10314;DHT22;5202;49.138;10.090;2024-01-30T03:52:13;-0.20;99.90
10314;DHT22;5202;49.138;10.090;2024-01-30T03:54:45;-0.20;99.90
10314;DHT22;5202;49.138;10.090;2024-01-30T03:57:30;-0.20;99.90
10314;DHT22;5202;49.138;10.090;2024-01-30T04:00:21;-0.30;99.90
10314;DHT22;5202;49.138;10.090;2024-01-30T04:02:49;-0.30;99.90
10314;DHT22;5202;49.138;10.090;2024-01-30T04:05:19;-0.30;99.90
10314;DHT22;5202;49.138;10.090;2024-01-30T04:07:50;-0.30;99.90
10314;DHT22;5202;49.138;10.090;2024-01-30T04:10:18;-0.30;99.90
10314;DHT22;5202;49.138;10.090;2024-01-30T04:12:47;-0.30;99.90
10314;DHT22;5202;49.138;10.090;2024-01-30T04:15:15;-0.30;99.90
10314;DHT22;5202;49.138;10.090;2024-01-30T04:17:44;-0.40;99.90
10314;DHT22;5202;49.138;10.090;2024-01-30T04:20:13;-0.40;99.90
10314;DHT22;5202;49.138;10.090;2024-01-30T04:22:45;-0.40;99.90
10314;DHT22;5202;49.138;10.090;2024-01-30T04:25:14;-0.40;99.90
10314;DHT22;5202;49.138;10.090;2024-01-30T04:27:43;-0.40;99.90
10314;DHT22;5202;49.138;10.090;2024-01-30T04:30:11;-0.40;99.90
10314;DHT22;5202;49.138;10.090;2024-01-30T04:32:40;-0.40;99.90
10314;DHT22;5202;49.138;10.090;2024-01-30T04:35:10;-0.40;99.90
10314;DHT22;5202;49.138;10.090;2024-01-30T04:37:38;-0.50;99.90
10314;DHT22;5202;49.138;10.090;2024-01-30T04:40:09;-0.60;99.90
10314;DHT22;5202;49.138;10.090;2024-01-30T04:42:38;-0.70;99.90
10314;DHT22;5202;49.138;10.090;2024-01-30T04:45:07;-0.70;99.90
10314;DHT22;5202;49.138;10.090;2024-01-30T04:47:36;-0.70;99.90
10314;DHT22;5202;49.138;10.090;2024-01-30T04:50:07;-0.70;99.90
10314;DHT22;5202;49.138;10.090;2024-01-30T04:52:36;-0.70;99.90
10314;DHT22;5202;49.138;10.090;2024-01-30T04:55:05;-0.70;99.90
10314;DHT22;5202;49.138;10.090;2024-01-30T04:57:36;-0.70;99.90
10314;DHT22;5202;49.138;10.090;2024-01-30T05:00:05;-0.70;99.90
10314;DHT22;5202;49.138;10.090;2024-01-30T05:02:34;-0.70;99.90
10314;DHT22;5202;49.138;10.090;2024-01-30T05:05:05;-0.70;99.90
10314;DHT22;5202;49.138;10.090;2024-01-30T05:07:33;-0.70;99.90
10314;DHT22;5202;49.138;10.090;2024-01-30T05:10:03;-0.70;99.90
10314;DHT22;5202;49.138;10.090;2024-01-30T05:12:33;-0.80;99.90
10314;DHT22;5202;49.138;10.090;2024-01-30T05:15:04;-0.80;99.90
10314;DHT22;5202;49.138;10.090;2024-01-30T05:17:33;-0.80;99.90
10314;DHT22;5202;49.138;10.090;2024-01-30T05:20:02;-0.70;99.90
10314;DHT22;5202;49.138;10.090;2024-01-30T05:22:31;-0.80;99.90
10314;DHT22;5202;49.138;10.090;2024-01-30T05:25:00;-0.70;99.90
10314;DHT22;5202;49.138;10.090;2024-01-30T05:27:29;-0.80;99.90
10314;DHT22;5202;49.138;10.090;2024-01-30T05:29:57;-0.80;99.90
10314;DHT22;5202;49.138;10.090;2024-01-30T05:32:27;-0.80;99.90
10314;DHT22;5202;49.138;10.090;2024-01-30T05:34:55;-0.80;99.90
10314;DHT22;5202;49.138;10.090;2024-01-30T05:37:24;-0.80;99.90
10314;DHT22;5202;49.138;10.090;2024-01-30T05:39:58;-0.70;99.90
10314;DHT22;5202;49.138;10.090;2024-01-30T05:42:27;-0.70;99.90
10314;DHT22;5202;49.138;10.090;2024-01-30T05:44:55;-0.70;99.90
10314;DHT22;5202;49.138;10.090;2024-01-30T05:47:24;-0.70;99.90
10314;DHT22;5202;49.138;10.090;2024-01-30T05:49:54;-0.70;99.90
10314;DHT22;5202;49.138;10.090;2024-01-30T05:52:22;-0.70;99.90
10314;DHT22;5202;49.138;10.090;2024-01-30T05:54:51;-0.70;99.90
10314;DHT22;5202;49.138;10.090;2024-01-30T05:57:19;-0.70;99.90
10314;DHT22;5202;49.138;10.090;2024-01-30T05:59:47;-0.70;99.90
10314;DHT22;5202;49.138;10.090;2024-01-30T06:02:18;-0.70;99.90
10314;DHT22;5202;49.138;10.090;2024-01-30T06:04:47;-0.70;99.90
10314;DHT22;5202;49.138;10.090;2024-01-30T06:07:17;-0.70;99.90
10314;DHT22;5202;49.138;10.090;2024-01-30T06:09:45;-0.70;99.90
10314;DHT22;5202;49.138;10.090;2024-01-30T06:12:14;-0.70;99.90
10314;DHT22;5202;49.138;10.090;2024-01-30T06:14:42;-0.80;99.90
10314;DHT22;5202;49.138;10.090;2024-01-30T06:17:13;-0.80;99.90
10314;DHT22;5202;49.138;10.090;2024-01-30T06:19:42;-0.80;99.90
10314;DHT22;5202;49.138;10.090;2024-01-30T06:22:10;-0.80;99.90
10314;DHT22;5202;49.138;10.090;2024-01-30T06:24:40;-0.70;99.90
10314;DHT22;5202;49.138;10.090;2024-01-30T06:27:09;-0.70;99.90
10314;DHT22;5202;49.138;10.090;2024-01-30T06:29:40;-0.70;99.90
10314;DHT22;5202;49.138;10.090;2024-01-30T06:32:43;-0.70;99.90
10314;DHT22;5202;49.138;10.090;2024-01-30T06:35:11;-0.70;99.90
10314;DHT22;5202;49.138;10.090;2024-01-30T06:37:40;-0.70;99.90
10314;DHT22;5202;49.138;10.090;2024-01-30T06:40:10;-0.70;99.90
10314;DHT22;5202;49.138;10.090;2024-01-30T06:42:39;-0.70;99.90
10314;DHT22;5202;49.138;10.090;2024-01-30T06:45:09;-0.70;99.90
10314;DHT22;5202;49.138;10.090;2024-01-30T06:47:37;-0.60;99.90
10314;DHT22;5202;49.138;10.090;2024-01-30T06:50:07;-0.60;99.90
10314;DHT22;5202;49.138;10.090;2024-01-30T06:52:36;-0.60;99.90
10314;DHT22;5202;49.138;10.090;2024-01-30T06:55:04;-0.60;99.90
10314;DHT22;5202;49.138;10.090;2024-01-30T06:57:35;-0.50;99.90
10314;DHT22;5202;49.138;10.090;2024-01-30T07:00:04;-0.60;99.90
10314;DHT22;5202;49.138;10.090;2024-01-30T07:02:34;-0.50;99.90
10314;DHT22;5202;49.138;10.090;2024-01-30T07:05:04;-0.50;99.90
10314;DHT22;5202;49.138;10.090;2024-01-30T07:07:33;-0.50;99.90
10314;DHT22;5202;49.138;10.090;2024-01-30T07:10:02;-0.50;99.90
10314;DHT22;5202;49.138;10.090;2024-01-30T07:12:33;-0.40;99.90
10314;DHT22;5202;49.138;10.090;2024-01-30T07:15:03;-0.40;99.90
10314;DHT22;5202;49.138;10.090;2024-01-30T07:17:35;-0.40;99.90
10314;DHT22;5202;49.138;10.090;2024-01-30T07:20:06;-0.40;99.90
10314;DHT22;5202;49.138;10.090;2024-01-30T07:22:38;-0.40;99.90
10314;DHT22;5202;49.138;10.090;2024-01-30T07:25:07;-0.30;99.90
10314;DHT22;5202;49.138;10.090;2024-01-30T07:27:38;-0.30;99.90
10314;DHT22;5202;49.138;10.090;2024-01-30T07:30:07;-0.20;99.90
10314;DHT22;5202;49.138;10.090;2024-01-30T07:32:38;-0.10;99.90
10314;DHT22;5202;49.138;10.090;2024-01-30T07:35:07;-0.10;99.90
10314;DHT22;5202;49.138;10.090;2024-01-30T07:37:36;0.00;99.90
10314;DHT22;5202;49.138;10.090;2024-01-30T07:40:05;0.10;99.90
10314;DHT22;5202;49.138;10.090;2024-01-30T07:42:34;0.10;99.90
10314;DHT22;5202;49.138;10.090;2024-01-30T07:45:05;0.20;99.90
10314;DHT22;5202;49.138;10.090;2024-01-30T07:47:34;0.20;99.90
10314;DHT22;5202;49.138;10.090;2024-01-30T07:50:02;0.30;99.90
10314;DHT22;5202;49.138;10.090;2024-01-30T07:52:31;0.40;99.90
10314;DHT22;5202;49.138;10.090;2024-01-30T07:54:59;0.40;99.90
10314;DHT22;5202;49.138;10.090;2024-01-30T07:57:29;0.50;99.90
10314;DHT22;5202;49.138;10.090;2024-01-30T07:59:58;0.50;99.90
10314;DHT22;5202;49.138;10.090;2024-01-30T08:02:27;0.50;99.90
10314;DHT22;5202;49.138;10.090;2024-01-30T08:04:56;0.60;99.90
10314;DHT22;5202;49.138;10.090;2024-01-30T08:07:24;0.60;99.90
10314;DHT22;5202;49.138;10.090;2024-01-30T08:09:53;0.70;99.90
10314;DHT22;5202;49.138;10.090;2024-01-30T08:12:21;0.70;99.90
10314;DHT22;5202;49.138;10.090;2024-01-30T08:14:50;0.80;99.90
10314;DHT22;5202;49.138;10.090;2024-01-30T08:17:18;0.80;99.90
10314;DHT22;5202;49.138;10.090;2024-01-30T08:19:48;0.90;99.90
10314;DHT22;5202;49.138;10.090;2024-01-30T08:22:17;0.90;99.90
10314;DHT22;5202;49.138;10.090;2024-01-30T08:24:46;1.00;99.90
10314;DHT22;5202;49.138;10.090;2024-01-30T08:27:14;1.10;99.90
10314;DHT22;5202;49.138;10.090;2024-01-30T08:29:43;1.20;99.90
10314;DHT22;5202;49.138;10.090;2024-01-30T08:32:12;1.20;99.90
10314;DHT22;5202;49.138;10.090;2024-01-30T08:34:41;1.30;99.90
10314;DHT22;5202;49.138;10.090;2024-01-30T08:37:11;1.40;99.90
10314;DHT22;5202;49.138;10.090;2024-01-30T08:39:43;1.40;99.90
10314;DHT22;5202;49.138;10.090;2024-01-30T08:42:12;1.50;99.90
10314;DHT22;5202;49.138;10.090;2024-01-30T08:44:43;1.50;99.90
10314;DHT22;5202;49.138;10.090;2024-01-30T08:47:12;1.60;99.90
10314;DHT22;5202;49.138;10.090;2024-01-30T08:49:40;1.60;99.90
10314;DHT22;5202;49.138;10.090;2024-01-30T08:52:17;1.60;99.90
10314;DHT22;5202;49.138;10.090;2024-01-30T08:54:45;1.50;99.90
10314;DHT22;5202;49.138;10.090;2024-01-30T08:57:14;1.60;99.90
10314;DHT22;5202;49.138;10.090;2024-01-30T08:59:42;1.50;99.90
10314;DHT22;5202;49.138;10.090;2024-01-30T09:02:12;1.60;99.90
10314;DHT22;5202;49.138;10.090;2024-01-30T09:04:45;1.70;99.90
10314;DHT22;5202;49.138;10.090;2024-01-30T09:07:14;1.80;99.90
10314;DHT22;5202;49.138;10.090;2024-01-30T09:09:53;1.90;99.90
10314;DHT22;5202;49.138;10.090;2024-01-30T09:12:22;2.00;99.90
10314;DHT22;5202;49.138;10.090;2024-01-30T09:14:50;2.00;99.90
10314;DHT22;5202;49.138;10.090;2024-01-30T09:17:19;2.10;99.90
10314;DHT22;5202;49.138;10.090;2024-01-30T09:19:47;2.10;99.90
10314;DHT22;5202;49.138;10.090;2024-01-30T09:22:16;2.10;99.90
10314;DHT22;5202;49.138;10.090;2024-01-30T09:24:44;2.20;99.90
10314;DHT22;5202;49.138;10.090;2024-01-30T09:27:14;2.30;99.90
10314;DHT22;5202;49.138;10.090;2024-01-30T09:29:45;2.40;99.90
10314;DHT22;5202;49.138;10.090;2024-01-30T09:32:16;2.40;99.90
10314;DHT22;5202;49.138;10.090;2024-01-30T09:34:45;2.50;99.90
10314;DHT22;5202;49.138;10.090;2024-01-30T09:37:14;2.60;99.90
10314;DHT22;5202;49.138;10.090;2024-01-30T09:39:47;2.80;99.90
10314;DHT22;5202;49.138;10.090;2024-01-30T09:42:25;2.90;99.90
10314;DHT22;5202;49.138;10.090;2024-01-30T09:44:55;3.10;99.90
10314;DHT22;5202;49.138;10.090;2024-01-30T09:47:24;3.30;99.90
10314;DHT22;5202;49.138;10.090;2024-01-30T09:49:54;3.50;99.90
10314;DHT22;5202;49.138;10.090;2024-01-30T09:52:23;3.70;99.90
10314;DHT22;5202;49.138;10.090;2024-01-30T09:54:53;3.80;99.90
10314;DHT22;5202;49.138;10.090;2024-01-30T09:57:23;4.00;99.90
10314;DHT22;5202;49.138;10.090;2024-01-30T09:59:53;4.10;99.90
10314;DHT22;5202;49.138;10.090;2024-01-30T10:02:22;4.30;99.90
10314;DHT22;5202;49.138;10.090;2024-01-30T10:04:51;4.50;99.90
10314;DHT22;5202;49.138;10.090;2024-01-30T10:07:20;4.80;99.90
10314;DHT22;5202;49.138;10.090;2024-01-30T10:09:50;5.00;99.90
10314;DHT22;5202;49.138;10.090;2024-01-30T10:12:19;5.20;99.90
10314;DHT22;5202;49.138;10.090;2024-01-30T10:14:48;5.30;99.90
10314;DHT22;5202;49.138;10.090;2024-01-30T10:17:17;5.50;99.90
10314;DHT22;5202;49.138;10.090;2024-01-30T10:19:59;5.60;99.90
10314;DHT22;5202;49.138;10.090;2024-01-30T10:22:28;5.80;99.90
10314;DHT22;5202;49.138;10.090;2024-01-30T10:24:57;6.00;99.90
10314;DHT22;5202;49.138;10.090;2024-01-30T10:27:29;6.20;99.90
10314;DHT22;5202;49.138;10.090;2024-01-30T10:30:02;6.30;99.90
10314;DHT22;5202;49.138;10.090;2024-01-30T10:32:44;6.50;99.90
10314;DHT22;5202;49.138;10.090;2024-01-30T10:35:12;6.70;99.90
10314;DHT22;5202;49.138;10.090;2024-01-30T10:37:43;6.90;99.90
10314;DHT22;5202;49.138;10.090;2024-01-30T10:40:14;7.00;99.90
10314;DHT22;5202;49.138;10.090;2024-01-30T10:42:44;7.20;99.90
10314;DHT22;5202;49.138;10.090;2024-01-30T10:45:15;7.30;99.90
10314;DHT22;5202;49.138;10.090;2024-01-30T10:47:49;7.50;99.90
10314;DHT22;5202;49.138;10.090;2024-01-30T10:50:18;7.70;99.90
10314;DHT22;5202;49.138;10.090;2024-01-30T10:52:47;7.80;99.90
10314;DHT22;5202;49.138;10.090;2024-01-30T10:55:16;7.90;99.90
10314;DHT22;5202;49.138;10.090;2024-01-30T10:57:46;8.00;99.90
10314;DHT22;5202;49.138;10.090;2024-01-30T11:00:17;8.10;99.70
10314;DHT22;5202;49.138;10.090;2024-01-30T11:02:50;8.10;99.60
10314;DHT22;5202;49.138;10.090;2024-01-30T11:05:24;8.20;97.90
10314;DHT22;5202;49.138;10.090;2024-01-30T11:08:09;8.20;97.30
10314;DHT22;5202;49.138;10.090;2024-01-30T11:10:45;8.20;97.00
10314;DHT22;5202;49.138;10.090;2024-01-30T11:13:14;8.30;96.60
10314;DHT22;5202;49.138;10.090;2024-01-30T11:15:47;8.30;96.60
10314;DHT22;5202;49.138;10.090;2024-01-30T11:18:23;8.40;96.80
10314;DHT22;5202;49.138;10.090;2024-01-30T11:20:52;8.60;96.50
10314;DHT22;5202;49.138;10.090;2024-01-30T11:23:25;8.60;96.20
10314;DHT22;5202;49.138;10.090;2024-01-30T11:25:55;8.80;96.30
10314;DHT22;5202;49.138;10.090;2024-01-30T11:28:24;9.00;96.40
10314;DHT22;5202;49.138;10.090;2024-01-30T11:31:05;9.10;95.60
10314;DHT22;5202;49.138;10.090;2024-01-30T11:33:35;9.30;95.70
10314;DHT22;5202;49.138;10.090;2024-01-30T11:36:04;9.40;94.60
10314;DHT22;5202;49.138;10.090;2024-01-30T11:38:34;9.40;95.40
10314;DHT22;5202;49.138;10.090;2024-01-30T11:41:03;9.50;95.60
10314;DHT22;5202;49.138;10.090;2024-01-30T11:43:32;9.50;94.20
10314;DHT22;5202;49.138;10.090;2024-01-30T11:46:02;9.60;94.50
10314;DHT22;5202;49.138;10.090;2024-01-30T11:48:32;9.60;93.90
10314;DHT22;5202;49.138;10.090;2024-01-30T11:51:01;9.60;94.00
10314;DHT22;5202;49.138;10.090;2024-01-30T11:53:30;9.70;93.30
10314;DHT22;5202;49.138;10.090;2024-01-30T11:55:58;9.70;92.40
10314;DHT22;5202;49.138;10.090;2024-01-30T11:58:26;9.70;92.30
10314;DHT22;5202;49.138;10.090;2024-01-30T12:00:55;9.70;92.20
10314;DHT22;5202;49.138;10.090;2024-01-30T12:03:25;9.80;92.50
10314;DHT22;5202;49.138;10.090;2024-01-30T12:05:58;9.90;92.30
10314;DHT22;5202;49.138;10.090;2024-01-30T12:08:27;9.80;92.30
10314;DHT22;5202;49.138;10.090;2024-01-30T12:10:56;9.80;92.50
10314;DHT22;5202;49.138;10.090;2024-01-30T12:13:26;9.80;92.30
10314;DHT22;5202;49.138;10.090;2024-01-30T12:15:59;9.80;92.30
10314;DHT22;5202;49.138;10.090;2024-01-30T12:18:29;9.90;92.20
10314;DHT22;5202;49.138;10.090;2024-01-30T12:21:00;9.90;91.80
10314;DHT22;5202;49.138;10.090;2024-01-30T12:23:29;10.00;91.20
10314;DHT22;5202;49.138;10.090;2024-01-30T12:25:57;10.00;91.10
10314;DHT22;5202;49.138;10.090;2024-01-30T12:28:26;10.10;91.40
10314;DHT22;5202;49.138;10.090;2024-01-30T12:30:55;10.20;91.20
10314;DHT22;5202;49.138;10.090;2024-01-30T12:33:26;10.20;90.70
10314;DHT22;5202;49.138;10.090;2024-01-30T12:35:56;10.30;90.80
10314;DHT22;5202;49.138;10.090;2024-01-30T12:38:31;10.30;91.00
10314;DHT22;5202;49.138;10.090;2024-01-30T12:41:00;10.40;90.70
10314;DHT22;5202;49.138;10.090;2024-01-30T12:43:29;10.50;90.80
10314;DHT22;5202;49.138;10.090;2024-01-30T12:46:05;10.50;89.80
10314;DHT22;5202;49.138;10.090;2024-01-30T12:48:34;10.50;89.10
10314;DHT22;5202;49.138;10.090;2024-01-30T12:51:03;10.50;89.70
10314;DHT22;5202;49.138;10.090;2024-01-30T12:53:33;10.60;90.00
10314;DHT22;5202;49.138;10.090;2024-01-30T12:56:02;10.60;89.00
10314;DHT22;5202;49.138;10.090;2024-01-30T12:58:31;10.70;88.50
10314;DHT22;5202;49.138;10.090;2024-01-30T13:01:00;10.70;88.90
10314;DHT22;5202;49.138;10.090;2024-01-30T13:03:28;10.80;89.20
10314;DHT22;5202;49.138;10.090;2024-01-30T13:05:57;10.90;87.60
10314;DHT22;5202;49.138;10.090;2024-01-30T13:08:26;10.90;87.20
10314;DHT22;5202;49.138;10.090;2024-01-30T13:10:56;11.00;86.60
10314;DHT22;5202;49.138;10.090;2024-01-30T13:13:25;11.10;86.60
10314;DHT22;5202;49.138;10.090;2024-01-30T13:15:54;11.10;86.80
10314;DHT22;5202;49.138;10.090;2024-01-30T13:18:22;11.20;86.80
10314;DHT22;5202;49.138;10.090;2024-01-30T13:20:51;11.40;87.90
10314;DHT22;5202;49.138;10.090;2024-01-30T13:23:19;11.60;86.60
10314;DHT22;5202;49.138;10.090;2024-01-30T13:25:47;11.50;85.40
10314;DHT22;5202;49.138;10.090;2024-01-30T13:28:17;11.60;86.20
10314;DHT22;5202;49.138;10.090;2024-01-30T13:30:46;11.50;87.20
10314;DHT22;5202;49.138;10.090;2024-01-30T13:33:14;11.70;88.40
10314;DHT22;5202;49.138;10.090;2024-01-30T13:35:43;11.90;88.70
10314;DHT22;5202;49.138;10.090;2024-01-30T13:38:12;12.10;88.40
10314;DHT22;5202;49.138;10.090;2024-01-30T13:40:41;12.30;88.90
10314;DHT22;5202;49.138;10.090;2024-01-30T13:43:10;12.30;87.80
10314;DHT22;5202;49.138;10.090;2024-01-30T13:45:40;12.30;86.40
10314;DHT22;5202;49.138;10.090;2024-01-30T13:48:09;12.10;85.00
10314;DHT22;5202;49.138;10.090;2024-01-30T13:50:37;12.20;84.40
10314;DHT22;5202;49.138;10.090;2024-01-30T13:53:06;12.10;84.70
10314;DHT22;5202;49.138;10.090;2024-01-30T13:55:35;12.00;84.30
10314;DHT22;5202;49.138;10.090;2024-01-30T13:58:03;11.90;84.60
10314;DHT22;5202;49.138;10.090;2024-01-30T14:00:32;11.90;84.20
10314;DHT22;5202;49.138;10.090;2024-01-30T14:03:02;11.90;84.30
10314;DHT22;5202;49.138;10.090;2024-01-30T14:05:31;11.90;85.00
10314;DHT22;5202;49.138;10.090;2024-01-30T14:08:00;11.80;83.70
10314;DHT22;5202;49.138;10.090;2024-01-30T14:10:28;11.70;83.60
10314;DHT22;5202;49.138;10.090;2024-01-30T14:12:57;11.60;84.00
10314;DHT22;5202;49.138;10.090;2024-01-30T14:15:26;11.60;84.10
10314;DHT22;5202;49.138;10.090;2024-01-30T14:17:56;11.60;84.50
10314;DHT22;5202;49.138;10.090;2024-01-30T14:20:27;11.60;82.90
10314;DHT22;5202;49.138;10.090;2024-01-30T14:22:56;11.50;83.40
10314;DHT22;5202;49.138;10.090;2024-01-30T14:25:24;11.40;82.00
10314;DHT22;5202;49.138;10.090;2024-01-30T14:27:53;11.30;82.70
10314;DHT22;5202;49.138;10.090;2024-01-30T14:30:21;11.30;83.20
10314;DHT22;5202;49.138;10.090;2024-01-30T14:32:50;11.30;83.30
10314;DHT22;5202;49.138;10.090;2024-01-30T14:35:19;11.20;83.40
10314;DHT22;5202;49.138;10.090;2024-01-30T14:37:49;11.20;83.70
10314;DHT22;5202;49.138;10.090;2024-01-30T14:40:18;11.20;84.00
10314;DHT22;5202;49.138;10.090;2024-01-30T14:42:47;11.20;84.60
10314;DHT22;5202;49.138;10.090;2024-01-30T14:45:16;11.10;84.00
10314;DHT22;5202;49.138;10.090;2024-01-30T14:47:45;11.10;84.60
10314;DHT22;5202;49.138;10.090;2024-01-30T14:50:14;11.20;86.40
10314;DHT22;5202;49.138;10.090;2024-01-30T14:52:44;11.10;87.00
10314;DHT22;5202;49.138;10.090;2024-01-30T14:55:14;11.10;88.30
10314;DHT22;5202;49.138;10.090;2024-01-30T14:57:42;11.10;89.30
10314;DHT22;5202;49.138;10.090;2024-01-30T15:00:13;11.00;88.80
10314;DHT22;5202;49.138;10.090;2024-01-30T15:02:44;11.00;88.10
10314;DHT22;5202;49.138;10.090;2024-01-30T15:05:14;11.00;88.10
10314;DHT22;5202;49.138;10.090;2024-01-30T15:07:53;10.90;89.10
10314;DHT22;5202;49.138;10.090;2024-01-30T15:10:23;10.90;90.00
10314;DHT22;5202;49.138;10.090;2024-01-30T15:12:52;10.80;89.50
10314;DHT22;5202;49.138;10.090;2024-01-30T15:15:21;10.80;90.60
10314;DHT22;5202;49.138;10.090;2024-01-30T15:17:52;10.70;90.50
10314;DHT22;5202;49.138;10.090;2024-01-30T15:20:22;10.70;89.00
10314;DHT22;5202;49.138;10.090;2024-01-30T15:22:50;10.60;88.90
10314;DHT22;5202;49.138;10.090;2024-01-30T15:25:18;10.50;89.20
10314;DHT22;5202;49.138;10.090;2024-01-30T15:27:48;10.50;89.40
10314;DHT22;5202;49.138;10.090;2024-01-30T15:30:16;10.50;89.10
10314;DHT22;5202;49.138;10.090;2024-01-30T15:32:46;10.40;89.10
10314;DHT22;5202;49.138;10.090;2024-01-30T15:35:14;10.40;88.80
10314;DHT22;5202;49.138;10.090;2024-01-30T15:37:43;10.40;88.60
10314;DHT22;5202;49.138;10.090;2024-01-30T15:40:11;10.30;87.80
10314;DHT22;5202;49.138;10.090;2024-01-30T15:42:40;10.20;88.00
10314;DHT22;5202;49.138;10.090;2024-01-30T15:45:11;10.20;88.20
10314;DHT22;5202;49.138;10.090;2024-01-30T15:47:39;10.20;87.90
10314;DHT22;5202;49.138;10.090;2024-01-30T15:50:08;10.10;88.00
10314;DHT22;5202;49.138;10.090;2024-01-30T15:52:39;10.10;88.80